createdAt,value
2017-10-22T00:00:40.670Z,99767.55
2017-10-22T00:03:10.951Z,99764.20
2017-10-22T00:05:40.139Z,99766.36
2017-10-22T00:08:09.423Z,99766.67
2017-10-22T00:10:38.659Z,99771.28
2017-10-22T00:13:07.868Z,99767.83
2017-10-22T00:15:37.104Z,99768.11
2017-10-22T00:18:06.283Z,99765.55
2017-10-22T00:20:36.268Z,99765.45
2017-10-22T00:23:05.446Z,99771.19
2017-10-22T00:25:34.655Z,99763.89
2017-10-22T00:28:03.867Z,99767.70
2017-10-22T00:30:33.129Z,99766.47
2017-10-22T00:33:02.447Z,99756.02
2017-10-22T00:35:31.645Z,99753.91
2017-10-22T00:38:00.849Z,99750.86
2017-10-22T00:40:30.068Z,99752.22
2017-10-22T00:42:59.642Z,99752.72
2017-10-22T00:45:28.831Z,99747.76
2017-10-22T00:47:58.024Z,99746.39
2017-10-22T00:50:27.203Z,99748.25
2017-10-22T00:52:56.395Z,99745.92
2017-10-22T00:55:25.607Z,99743.11
2017-10-22T00:57:54.816Z,99744.03
2017-10-22T01:00:24.023Z,99736.03
2017-10-22T01:02:53.484Z,99741.53
2017-10-22T01:05:22.695Z,99735.07
2017-10-22T01:07:51.889Z,99729.16
2017-10-22T01:10:21.092Z,99734.10
2017-10-22T01:12:50.271Z,99735.78
2017-10-22T01:15:19.491Z,99726.91
2017-10-22T01:17:48.678Z,99725.13
2017-10-22T01:20:17.923Z,99715.03
2017-10-22T01:22:47.122Z,99718.19
2017-10-22T01:25:16.306Z,99714.81
2017-10-22T01:27:45.519Z,99709.36
2017-10-22T01:30:15.515Z,99706.13
2017-10-22T01:32:44.724Z,99706.08
2017-10-22T01:35:13.903Z,99708.51
2017-10-22T01:37:43.127Z,99709.08
2017-10-22T01:40:12.320Z,99711.02
2017-10-22T01:42:41.531Z,99718.17
2017-10-22T01:45:11.472Z,99709.34
2017-10-22T01:47:41.517Z,99703.81
2017-10-22T01:50:10.744Z,99702.09
2017-10-22T01:52:39.931Z,99692.36
2017-10-22T01:55:09.128Z,99687.08
2017-10-22T01:57:38.322Z,99690.77
2017-10-22T02:00:08.416Z,99688.91
2017-10-22T02:02:37.609Z,99688.96
2017-10-22T02:05:07.047Z,99689.34
2017-10-22T02:07:36.250Z,99693.83
2017-10-22T02:10:05.434Z,99695.14
2017-10-22T02:12:34.627Z,99690.10
2017-10-22T02:15:03.815Z,99689.48
2017-10-22T02:17:33.794Z,99684.08
2017-10-22T02:20:03.007Z,99688.40
2017-10-22T02:22:32.219Z,99685.63
2017-10-22T02:25:01.429Z,99685.11
2017-10-22T02:27:30.627Z,99681.73
2017-10-22T02:30:00.584Z,99673.34
2017-10-22T02:32:30.012Z,99679.97
2017-10-22T02:34:59.209Z,99673.84
2017-10-22T02:37:29.275Z,99687.18
2017-10-22T02:39:58.477Z,99679.05
2017-10-22T02:42:27.667Z,99675.72
2017-10-22T02:44:56.905Z,99675.32
2017-10-22T02:47:26.855Z,99677.03
2017-10-22T02:49:56.155Z,99675.84
2017-10-22T02:52:25.360Z,99671.86
2017-10-22T02:54:54.569Z,99673.40
2017-10-22T02:57:23.755Z,99676.17
2017-10-22T02:59:52.980Z,99674.89
2017-10-22T03:02:22.188Z,99666.55
2017-10-22T03:04:52.167Z,99657.30
2017-10-22T03:07:21.646Z,99656.38
2017-10-22T03:09:50.847Z,99655.33
2017-10-22T03:12:20.127Z,99656.91
2017-10-22T03:14:49.324Z,99653.56
2017-10-22T03:17:18.533Z,99658.44
2017-10-22T03:19:47.719Z,99646.09
2017-10-22T03:22:16.923Z,99651.19
2017-10-22T03:24:46.120Z,99644.77
2017-10-22T03:27:15.322Z,99650.56
2017-10-22T03:29:44.524Z,99642.32
2017-10-22T03:32:13.747Z,99646.36
2017-10-22T03:34:43.689Z,99655.44
2017-10-22T03:37:13.660Z,99650.66
2017-10-22T03:39:42.876Z,99655.09
2017-10-22T03:42:12.059Z,99645.42
2017-10-22T03:44:41.293Z,99646.44
2017-10-22T03:47:10.447Z,99638.58
2017-10-22T03:49:39.676Z,99640.16
2017-10-22T03:52:08.883Z,99642.66
2017-10-22T03:54:38.072Z,99631.42
2017-10-22T03:57:07.284Z,99630.28
2017-10-22T03:59:37.325Z,99629.18
2017-10-22T04:02:06.595Z,99636.56
2017-10-22T04:04:35.816Z,99634.09
2017-10-22T04:07:05.025Z,99628.99
2017-10-22T04:09:34.212Z,99637.48
2017-10-22T04:12:03.411Z,99627.78
2017-10-22T04:14:32.616Z,99638.83
2017-10-22T04:17:01.812Z,99636.28
2017-10-22T04:19:31.032Z,99631.76
2017-10-22T04:22:00.244Z,99641.29
2017-10-22T04:24:29.432Z,99631.36
2017-10-22T04:26:58.660Z,99634.36
2017-10-22T04:29:27.871Z,99627.34
2017-10-22T04:31:57.881Z,99620.70
2017-10-22T04:34:27.431Z,99628.66
2017-10-22T04:36:56.663Z,99623.00
2017-10-22T04:39:25.926Z,99636.49
2017-10-22T04:41:55.875Z,99628.41
2017-10-22T04:44:25.868Z,99616.20
2017-10-22T04:46:55.088Z,99629.48
2017-10-22T04:49:24.287Z,99615.25
2017-10-22T04:51:53.495Z,99613.41
2017-10-22T04:54:22.644Z,99611.44
2017-10-22T04:56:51.852Z,99617.50
2017-10-22T04:59:21.039Z,99624.66
2017-10-22T05:01:50.264Z,99629.52
2017-10-22T05:04:19.435Z,99631.62
2017-10-22T05:06:48.627Z,99630.06
2017-10-22T05:09:17.849Z,99626.21
2017-10-22T05:11:47.055Z,99624.50
2017-10-22T05:14:16.268Z,99627.91
2017-10-22T05:16:45.465Z,99640.95
2017-10-22T05:19:14.660Z,99637.43
2017-10-22T05:21:43.878Z,99638.05
2017-10-22T05:24:13.859Z,99644.84
2017-10-22T05:26:43.395Z,99635.97
2017-10-22T05:29:13.373Z,99630.48
2017-10-22T05:31:42.561Z,99630.55
2017-10-22T05:34:11.755Z,99620.57
2017-10-22T05:36:41.041Z,99608.39
2017-10-22T05:39:10.268Z,99600.23
2017-10-22T05:41:39.451Z,99602.03
2017-10-22T05:44:08.649Z,99587.31
2017-10-22T05:46:37.844Z,99585.72
2017-10-22T05:49:07.051Z,99581.66
2017-10-22T05:51:36.252Z,99579.66
2017-10-22T05:54:05.493Z,99585.94
2017-10-22T05:56:35.455Z,99573.66
2017-10-22T05:59:04.888Z,99582.13
2017-10-22T06:01:34.151Z,99580.05
2017-10-22T06:04:03.357Z,99578.32
2017-10-22T06:06:32.544Z,99578.66
2017-10-22T06:09:01.728Z,99577.48
2017-10-22T06:11:30.947Z,99590.48
2017-10-22T06:14:00.151Z,99585.62
2017-10-22T06:16:29.364Z,99585.88
2017-10-22T06:18:58.558Z,99586.05
2017-10-22T06:21:27.789Z,99589.61
2017-10-22T06:23:57.938Z,99583.31
2017-10-22T06:26:27.245Z,99583.20
2017-10-22T06:28:56.521Z,99586.38
2017-10-22T06:31:25.738Z,99584.30
2017-10-22T06:33:54.950Z,99579.02
2017-10-22T06:36:24.275Z,99593.33
2017-10-22T06:38:53.513Z,99590.84
2017-10-22T06:41:23.492Z,99591.58
2017-10-22T06:43:52.732Z,99609.63
2017-10-22T06:46:21.943Z,99597.57
2017-10-22T06:48:52.069Z,99604.24
2017-10-22T06:51:21.264Z,99604.98
2017-10-22T06:53:50.527Z,99603.05
2017-10-22T06:56:20.512Z,99604.64
2017-10-22T06:58:49.732Z,99606.14
2017-10-22T07:01:18.995Z,99612.53
2017-10-22T07:03:48.203Z,99609.25
2017-10-22T07:06:17.410Z,99609.19
2017-10-22T07:08:46.939Z,99615.02
2017-10-22T07:11:16.312Z,99616.20
2017-10-22T07:13:47.023Z,99621.72
2017-10-22T07:16:16.239Z,99627.31
2017-10-22T07:18:45.599Z,99631.90
2017-10-22T07:21:14.868Z,99624.88
2017-10-22T07:23:44.828Z,99622.28
2017-10-22T07:26:14.054Z,99627.96
2017-10-22T07:28:43.307Z,99621.80
2017-10-22T07:31:12.506Z,99626.35
2017-10-22T07:33:41.711Z,99633.22
2017-10-22T07:36:11.121Z,99637.75
2017-10-22T07:38:40.356Z,99649.86
2017-10-22T07:41:09.548Z,99638.51
2017-10-22T07:43:38.802Z,99639.78
2017-10-22T07:46:08.031Z,99643.26
2017-10-22T07:48:37.236Z,99646.85
2017-10-22T07:51:07.952Z,99651.72
2017-10-22T07:53:37.160Z,99651.61
2017-10-22T07:56:06.355Z,99655.91
2017-10-22T07:58:35.559Z,99656.13
2017-10-22T08:01:05.548Z,99661.22
2017-10-22T08:03:34.763Z,99669.28
2017-10-22T08:06:04.933Z,99651.91
2017-10-22T08:08:34.126Z,99662.80
2017-10-22T08:11:04.104Z,99659.08
2017-10-22T08:13:33.526Z,99665.30
2017-10-22T08:16:03.520Z,99656.77
2017-10-22T08:18:32.784Z,99666.61
2017-10-22T08:21:01.972Z,99660.70
2017-10-22T08:23:31.207Z,99666.13
2017-10-22T08:26:00.412Z,99667.95
2017-10-22T08:28:29.657Z,99673.91
2017-10-22T08:30:59.697Z,99675.80
2017-10-22T08:33:28.906Z,99675.17
2017-10-22T08:35:58.097Z,99679.18
2017-10-22T08:38:27.397Z,99680.64
2017-10-22T08:40:56.615Z,99680.59
2017-10-22T08:43:25.775Z,99686.77
2017-10-22T08:45:55.224Z,99685.41
2017-10-22T08:48:25.929Z,99680.64
2017-10-22T08:50:55.096Z,99675.95
2017-10-22T08:53:25.371Z,99685.50
2017-10-22T08:55:54.584Z,99685.69
2017-10-22T08:58:23.803Z,99679.42
2017-10-22T09:00:53.788Z,99683.59
2017-10-22T09:03:22.980Z,99682.20
2017-10-22T09:05:53.724Z,99680.59
2017-10-22T09:08:23.020Z,99681.81
2017-10-22T09:10:52.232Z,99682.43
2017-10-22T09:13:22.186Z,99676.52
2017-10-22T09:15:52.200Z,99679.20
2017-10-22T09:18:21.408Z,99681.75
2017-10-22T09:20:50.633Z,99681.23
2017-10-22T09:23:21.353Z,99688.98
2017-10-22T09:25:50.576Z,99689.66
2017-10-22T09:28:19.847Z,99688.81
2017-10-22T09:30:49.043Z,99685.05
2017-10-22T09:33:18.255Z,99689.48
2017-10-22T09:35:47.438Z,99687.38
2017-10-22T09:38:16.656Z,99692.47
2017-10-22T09:40:45.852Z,99690.53
2017-10-22T09:43:15.052Z,99681.58
2017-10-22T09:45:45.769Z,99685.44
2017-10-22T09:48:15.148Z,99695.30
2017-10-22T09:50:44.332Z,99689.91
2017-10-22T09:53:13.568Z,99692.36
2017-10-22T09:55:42.851Z,99686.57
2017-10-22T09:58:12.048Z,99698.52
2017-10-22T10:00:41.251Z,99694.22
2017-10-22T10:03:10.452Z,99696.89
2017-10-22T10:05:39.674Z,99691.05
2017-10-22T10:08:08.953Z,99689.39
2017-10-22T10:10:38.164Z,99687.27
2017-10-22T10:13:08.265Z,99687.98
2017-10-22T10:15:37.525Z,99691.85
2017-10-22T10:18:07.297Z,99699.23
2017-10-22T10:20:36.522Z,99697.86
2017-10-22T10:23:06.508Z,99692.98
2017-10-22T10:25:35.720Z,99695.09
2017-10-22T10:28:05.717Z,99704.09
2017-10-22T10:30:36.435Z,99703.47
2017-10-22T10:33:05.651Z,99693.33
2017-10-22T10:35:34.880Z,99703.55
2017-10-22T10:38:04.832Z,99711.89
2017-10-22T10:40:34.075Z,99702.14
2017-10-22T10:43:03.259Z,99708.66
2017-10-22T10:45:32.556Z,99704.93
2017-10-22T10:48:01.762Z,99708.05
2017-10-22T10:50:31.799Z,99714.37
2017-10-22T10:53:01.195Z,99717.31
2017-10-22T10:55:31.315Z,99722.41
2017-10-22T10:58:01.307Z,99718.18
2017-10-22T11:00:30.552Z,99719.24
2017-10-22T11:02:59.751Z,99723.15
2017-10-22T11:05:28.973Z,99713.58
2017-10-22T11:07:58.196Z,99723.38
2017-10-22T11:10:27.444Z,99713.97
2017-10-22T11:12:56.660Z,99716.39
2017-10-22T11:15:25.873Z,99711.47
2017-10-22T11:17:55.127Z,99707.34
2017-10-22T11:20:25.108Z,99718.94
2017-10-22T11:22:54.320Z,99712.30
2017-10-22T11:25:24.295Z,99721.09
2017-10-22T11:27:53.499Z,99717.92
2017-10-22T11:30:22.767Z,99722.75
2017-10-22T11:32:51.993Z,99720.42
2017-10-22T11:35:21.261Z,99722.05
2017-10-22T11:37:50.465Z,99725.29
2017-10-22T11:40:19.739Z,99723.62
2017-10-22T11:42:49.725Z,99724.98
2017-10-22T11:45:18.928Z,99733.73
2017-10-22T11:47:48.237Z,99726.08
2017-10-22T11:50:18.204Z,99726.31
2017-10-22T11:52:47.421Z,99728.73
2017-10-22T11:55:16.649Z,99726.04
2017-10-22T11:57:46.644Z,99730.57
2017-10-22T12:00:15.868Z,99732.77
2017-10-22T12:02:45.084Z,99731.66
2017-10-22T12:05:14.458Z,99730.12
2017-10-22T12:07:44.440Z,99729.20
2017-10-22T12:10:13.664Z,99724.68
2017-10-22T12:12:42.908Z,99731.01
2017-10-22T12:15:12.107Z,99730.52
2017-10-22T12:17:41.324Z,99730.04
2017-10-22T12:20:10.560Z,99730.44
2017-10-22T12:22:40.564Z,99733.11
2017-10-22T12:25:09.771Z,99727.61
2017-10-22T12:27:39.756Z,99731.91
2017-10-22T12:30:09.022Z,99732.00
2017-10-22T12:32:38.299Z,99734.98
2017-10-22T12:35:07.527Z,99740.69
2017-10-22T12:37:36.964Z,99735.72
2017-10-22T12:40:06.447Z,99736.69
2017-10-22T12:42:35.987Z,99734.94
2017-10-22T12:45:06.063Z,99737.27
2017-10-22T12:47:35.284Z,99742.48
2017-10-22T12:50:04.525Z,99746.00
2017-10-22T12:52:34.481Z,99744.12
2017-10-22T12:55:03.704Z,99753.16
2017-10-22T12:57:34.429Z,99750.18
2017-10-22T13:00:03.715Z,99749.75
2017-10-22T13:02:33.018Z,99750.89
2017-10-22T13:05:02.292Z,99751.02
2017-10-22T13:07:31.492Z,99755.54
2017-10-22T13:10:00.851Z,99756.55
2017-10-22T13:12:30.073Z,99755.41
2017-10-22T13:14:59.298Z,99756.32
2017-10-22T13:17:28.619Z,99748.36
2017-10-22T13:19:59.352Z,99753.69
2017-10-22T13:22:28.772Z,99760.84
2017-10-22T13:24:58.759Z,99762.21
2017-10-22T13:27:27.955Z,99753.86
2017-10-22T13:29:57.304Z,99758.13
2017-10-22T13:32:26.619Z,99765.48
2017-10-22T13:34:55.846Z,99770.88
2017-10-22T13:37:25.055Z,99773.37
2017-10-22T13:39:54.281Z,99767.63
2017-10-22T13:42:23.464Z,99768.02
2017-10-22T13:44:53.673Z,99770.47
2017-10-22T13:47:22.889Z,99774.26
2017-10-22T13:49:52.871Z,99771.05
2017-10-22T13:52:22.099Z,99777.20
2017-10-22T13:54:51.355Z,99775.05
2017-10-22T13:57:20.712Z,99779.53
2017-10-22T13:59:49.894Z,99782.20
2017-10-22T14:02:20.637Z,99780.84
2017-10-22T14:04:50.644Z,99790.77
2017-10-22T14:07:21.414Z,99792.56
2017-10-22T14:09:50.667Z,99797.63
2017-10-22T14:12:19.878Z,99794.64
2017-10-22T14:14:49.125Z,99797.53
2017-10-22T14:17:18.357Z,99798.03
2017-10-22T14:19:48.333Z,99803.09
2017-10-22T14:22:17.672Z,99817.92
2017-10-22T14:24:46.993Z,99814.95
2017-10-22T14:27:16.221Z,99819.33
2017-10-22T14:29:45.471Z,99815.87
2017-10-22T14:32:14.702Z,99824.91
2017-10-22T14:34:44.831Z,99826.44
2017-10-22T14:37:14.805Z,99817.22
2017-10-22T14:39:44.025Z,99822.41
2017-10-22T14:42:14.004Z,99819.73
2017-10-22T14:44:43.251Z,99818.54
2017-10-22T14:47:12.456Z,99825.30
2017-10-22T14:49:41.663Z,99822.92
2017-10-22T14:52:10.983Z,99827.73
2017-10-22T14:54:40.220Z,99828.42
2017-10-22T14:57:10.956Z,99835.63
2017-10-22T14:59:41.015Z,99832.45
2017-10-22T15:02:10.326Z,99839.77
2017-10-22T15:04:39.515Z,99838.63
2017-10-22T15:07:08.711Z,99840.85
2017-10-22T15:09:37.945Z,99850.83
2017-10-22T15:12:07.177Z,99848.50
2017-10-22T15:14:37.164Z,99853.95
2017-10-22T15:17:06.376Z,99851.35
2017-10-22T15:19:35.605Z,99851.45
2017-10-22T15:22:04.892Z,99858.53
2017-10-22T15:24:34.888Z,99856.67
2017-10-22T15:27:04.180Z,99862.56
2017-10-22T15:29:33.417Z,99863.98
2017-10-22T15:32:02.722Z,99862.44
2017-10-22T15:34:32.721Z,99865.30
2017-10-22T15:37:02.793Z,99868.86
2017-10-22T15:39:32.040Z,99861.20
2017-10-22T15:42:02.075Z,99877.34
2017-10-22T15:44:32.447Z,99880.11
2017-10-22T15:47:02.038Z,99882.44
2017-10-22T15:49:31.257Z,99887.88
2017-10-22T15:52:00.517Z,99887.36
2017-10-22T15:54:29.719Z,99884.02
2017-10-22T15:56:58.946Z,99889.34
2017-10-22T15:59:28.123Z,99886.05
2017-10-22T16:01:57.332Z,99884.37
2017-10-22T16:04:26.546Z,99891.28
2017-10-22T16:06:55.747Z,99896.33
2017-10-22T16:09:25.074Z,99902.25
2017-10-22T16:11:55.067Z,99910.25
2017-10-22T16:14:25.804Z,99904.28
2017-10-22T16:16:55.000Z,99911.91
2017-10-22T16:19:25.008Z,99910.02
2017-10-22T16:21:54.234Z,99913.12
2017-10-22T16:24:23.443Z,99921.62
2017-10-22T16:26:52.656Z,99921.06
2017-10-22T16:29:21.867Z,99929.40
2017-10-22T16:31:51.088Z,99930.69
2017-10-22T16:34:20.380Z,99930.25
2017-10-22T16:36:49.613Z,99935.61
2017-10-22T16:39:19.584Z,99932.05
2017-10-22T16:41:48.799Z,99934.88
2017-10-22T16:44:18.267Z,99936.90
2017-10-22T16:46:47.490Z,99941.46
2017-10-22T16:49:16.665Z,99943.08
2017-10-22T16:51:45.875Z,99942.32
2017-10-22T16:54:15.110Z,99939.49
2017-10-22T16:56:45.102Z,99933.70
2017-10-22T16:59:14.365Z,99943.83
2017-10-22T17:01:43.558Z,99958.72
2017-10-22T17:04:12.807Z,99948.77
2017-10-22T17:06:42.096Z,99961.05
2017-10-22T17:09:12.329Z,99954.02
2017-10-22T17:11:41.542Z,99963.31
2017-10-22T17:14:11.697Z,99965.81
2017-10-22T17:16:40.899Z,99972.87
2017-10-22T17:19:10.326Z,99973.27
2017-10-22T17:21:39.582Z,99975.81
2017-10-22T17:24:09.601Z,99979.09
2017-10-22T17:26:38.836Z,99978.38
2017-10-22T17:29:08.072Z,99979.52
2017-10-22T17:31:38.045Z,99975.78
2017-10-22T17:34:07.270Z,99981.89
2017-10-22T17:36:36.470Z,99985.81
2017-10-22T17:39:05.959Z,99983.14
2017-10-22T17:41:35.152Z,99990.70
2017-10-22T17:44:04.395Z,99992.84
2017-10-22T17:46:34.667Z,99997.05
2017-10-22T17:49:04.096Z,99992.52
2017-10-22T17:51:33.403Z,99995.02
2017-10-22T17:54:02.843Z,100004.05
2017-10-22T17:56:32.797Z,100002.64
2017-10-22T17:59:02.034Z,100005.28
2017-10-22T18:01:32.016Z,100001.84
2017-10-22T18:04:01.274Z,100011.20
2017-10-22T18:06:30.752Z,100004.68
2017-10-22T18:08:59.930Z,100018.11
2017-10-22T18:11:29.932Z,100016.19
2017-10-22T18:13:59.172Z,100022.84
2017-10-22T18:16:28.373Z,100034.94
2017-10-22T18:18:57.826Z,100030.09
2017-10-22T18:21:27.100Z,100029.06
2017-10-22T18:23:56.349Z,100043.59
2017-10-22T18:26:26.387Z,100032.11
2017-10-22T18:28:55.641Z,100030.13
2017-10-22T18:31:24.995Z,100037.47
2017-10-22T18:33:54.221Z,100031.88
2017-10-22T18:36:23.436Z,100034.88
2017-10-22T18:38:52.755Z,100034.55
2017-10-22T18:41:22.836Z,100040.95
2017-10-22T18:43:52.351Z,100038.47
2017-10-22T18:46:21.584Z,100053.46
2017-10-22T18:48:50.889Z,100050.34
2017-10-22T18:51:20.112Z,100044.87
2017-10-22T18:53:49.332Z,100048.60
2017-10-22T18:56:18.604Z,100049.63
2017-10-22T18:58:47.864Z,100046.39
2017-10-22T19:01:17.856Z,100044.13
2017-10-22T19:03:47.099Z,100045.38
2017-10-22T19:06:16.582Z,100046.66
2017-10-22T19:08:47.378Z,100053.30
2017-10-22T19:11:16.709Z,100048.26
2017-10-22T19:13:46.755Z,100048.03
2017-10-22T19:16:16.100Z,100041.19
2017-10-22T19:18:45.332Z,100047.01
2017-10-22T19:21:15.320Z,100048.72
2017-10-22T19:23:44.663Z,100048.72
2017-10-22T19:26:14.696Z,100042.87
2017-10-22T19:28:44.005Z,100049.74
2017-10-22T19:31:13.267Z,100049.22
2017-10-22T19:33:43.328Z,100049.63
2017-10-22T19:36:12.895Z,100054.76
2017-10-22T19:38:42.913Z,100055.23
2017-10-22T19:41:12.913Z,100052.84
2017-10-22T19:43:43.636Z,100059.48
2017-10-22T19:46:13.663Z,100059.98
2017-10-22T19:48:42.920Z,100057.14
2017-10-22T19:51:12.192Z,100064.70
2017-10-22T19:53:41.436Z,100065.08
2017-10-22T19:56:10.699Z,100065.89
2017-10-22T19:58:39.977Z,100072.05
2017-10-22T20:01:10.000Z,100074.05
2017-10-22T20:03:39.239Z,100064.05
2017-10-22T20:06:08.452Z,100076.75
2017-10-22T20:08:37.684Z,100074.59
2017-10-22T20:11:06.919Z,100078.57
2017-10-22T20:13:36.259Z,100082.25
2017-10-22T20:16:05.611Z,100087.01
2017-10-22T20:18:34.944Z,100088.87
2017-10-22T20:21:04.469Z,100090.29
2017-10-22T20:23:34.462Z,100092.20
2017-10-22T20:26:03.718Z,100097.35
2017-10-22T20:28:32.960Z,100090.56
2017-10-22T20:31:02.171Z,100094.81
2017-10-22T20:33:31.452Z,100095.44
2017-10-22T20:36:00.687Z,100098.22
2017-10-22T20:38:30.690Z,100099.98
2017-10-22T20:41:00.180Z,100099.18
2017-10-22T20:43:29.440Z,100098.71
2017-10-22T20:45:59.479Z,100096.72
2017-10-22T20:48:28.717Z,100101.23
2017-10-22T20:50:58.704Z,100090.63
2017-10-22T20:53:27.955Z,100099.34
2017-10-22T20:55:57.184Z,100094.97
2017-10-22T20:58:26.431Z,100099.55
2017-10-22T21:00:56.412Z,100102.11
2017-10-22T21:03:25.693Z,100097.47
2017-10-22T21:05:54.911Z,100107.70
2017-10-22T21:08:24.181Z,100110.53
2017-10-22T21:10:53.432Z,100112.12
2017-10-22T21:13:22.647Z,100114.30
2017-10-22T21:15:52.638Z,100122.36
2017-10-22T21:18:21.855Z,100122.45
2017-10-22T21:20:51.805Z,100121.63
2017-10-22T21:23:21.049Z,100121.86
2017-10-22T21:25:50.263Z,100116.83
2017-10-22T21:28:20.243Z,100123.84
2017-10-22T21:30:49.731Z,100125.64
2017-10-22T21:33:18.939Z,100121.23
2017-10-22T21:35:48.164Z,100127.23
2017-10-22T21:38:18.170Z,100122.45
2017-10-22T21:40:47.364Z,100127.95
2017-10-22T21:43:16.816Z,100125.08
2017-10-22T21:45:46.027Z,100122.45
2017-10-22T21:48:15.235Z,100118.55
2017-10-22T21:50:44.461Z,100126.13
2017-10-22T21:53:13.683Z,100128.22
2017-10-22T21:55:43.171Z,100121.76
2017-10-22T21:58:12.392Z,100118.87
2017-10-22T22:00:42.387Z,100127.66
2017-10-22T22:03:11.581Z,100121.73
2017-10-22T22:05:41.572Z,100124.05
2017-10-22T22:08:11.061Z,100126.67
2017-10-22T22:10:40.276Z,100124.51
2017-10-22T22:13:09.480Z,100131.61
2017-10-22T22:15:38.671Z,100133.92
2017-10-22T22:18:07.906Z,100129.69
2017-10-22T22:20:37.088Z,100137.61
2017-10-22T22:23:07.108Z,100140.55
2017-10-22T22:25:37.151Z,100131.87
2017-10-22T22:28:06.423Z,100131.70
2017-10-22T22:30:35.628Z,100144.96
2017-10-22T22:33:05.611Z,100147.05
2017-10-22T22:35:34.836Z,100146.39
2017-10-22T22:38:04.038Z,100146.95
2017-10-22T22:40:34.049Z,100154.84
2017-10-22T22:43:03.299Z,100146.12
2017-10-22T22:45:32.496Z,100143.83
2017-10-22T22:48:01.697Z,100144.63
2017-10-22T22:50:30.953Z,100142.14
2017-10-22T22:53:00.936Z,100132.47
2017-10-22T22:55:30.136Z,100140.78
2017-10-22T22:57:59.335Z,100136.70
2017-10-22T23:00:28.787Z,100141.41
2017-10-22T23:02:58.030Z,100142.77
2017-10-22T23:05:27.227Z,100137.63
2017-10-22T23:07:57.964Z,100139.59
2017-10-22T23:10:27.186Z,100135.34
2017-10-22T23:12:57.213Z,100145.66
2017-10-22T23:15:27.304Z,100146.32
2017-10-22T23:17:56.535Z,100142.17
2017-10-22T23:20:25.870Z,100138.50
2017-10-22T23:22:55.064Z,100142.80
2017-10-22T23:25:24.274Z,100137.30
2017-10-22T23:27:53.489Z,100138.80
2017-10-22T23:30:22.707Z,100144.63
2017-10-22T23:32:52.764Z,100138.50
2017-10-22T23:35:21.963Z,100133.46
2017-10-22T23:37:52.001Z,100140.19
2017-10-22T23:40:21.419Z,100139.95
2017-10-22T23:42:50.675Z,100145.52
2017-10-22T23:45:19.881Z,100144.40
2017-10-22T23:47:49.088Z,100142.31
2017-10-22T23:50:18.308Z,100146.55
2017-10-22T23:52:48.309Z,100144.27
2017-10-22T23:55:17.492Z,100143.40
2017-10-22T23:57:46.870Z,100140.45
